createdAt,value
2022-11-20T00:01:31.631Z,22.17
2022-11-20T00:03:59.166Z,23.05
2022-11-20T00:06:27.662Z,20.58
2022-11-20T00:08:59.336Z,18.03
2022-11-20T00:11:28.004Z,21.27
2022-11-20T00:13:58.229Z,20.83
2022-11-20T00:16:27.070Z,20.55
2022-11-20T00:18:55.194Z,20.50
2022-11-20T00:21:25.478Z,18.33
2022-11-20T00:23:55.309Z,19.02
2022-11-20T00:26:24.110Z,20.73
2022-11-20T00:28:53.489Z,23.67
2022-11-20T00:31:20.670Z,25.35
2022-11-20T00:33:47.867Z,27.63
2022-11-20T00:36:17.727Z,24.12
2022-11-20T00:38:46.378Z,22.70
2022-11-20T00:41:15.853Z,19.33
2022-11-20T00:43:42.867Z,24.17
2022-11-20T00:46:22.310Z,24.40
2022-11-20T00:48:49.448Z,20.52
2022-11-20T00:51:19.943Z,23.60
2022-11-20T00:53:47.543Z,22.87
2022-11-20T00:56:17.733Z,25.73
2022-11-20T00:58:47.055Z,25.70
2022-11-20T01:01:19.961Z,20.58
2022-11-20T01:03:51.803Z,27.17
2022-11-20T01:06:40.139Z,25.55
2022-11-20T01:09:11.789Z,25.27
2022-11-20T01:11:42.082Z,27.70
2022-11-20T01:14:17.146Z,24.87
2022-11-20T01:16:46.920Z,25.73
2022-11-20T01:19:18.187Z,25.65
2022-11-20T01:21:47.329Z,25.05
2022-11-20T01:24:15.679Z,26.37
2022-11-20T01:26:44.071Z,24.60
2022-11-20T01:29:21.353Z,23.20
2022-11-20T01:31:48.509Z,27.00
2022-11-20T01:34:18.520Z,22.25
2022-11-20T01:36:45.944Z,24.83
2022-11-20T01:39:17.184Z,24.02
2022-11-20T01:42:09.374Z,23.80
2022-11-20T01:44:57.689Z,20.62
2022-11-20T01:47:39.870Z,26.67
2022-11-20T01:50:22.870Z,24.60
2022-11-20T01:52:55.966Z,24.42
2022-11-20T01:55:29.197Z,27.15
2022-11-20T01:57:56.686Z,24.95
2022-11-20T02:00:23.468Z,23.50
2022-11-20T02:02:58.269Z,21.07
2022-11-20T02:05:44.552Z,23.20
2022-11-20T02:08:12.824Z,22.80
2022-11-20T02:10:39.588Z,20.73
2022-11-20T02:13:25.344Z,19.87
2022-11-20T02:15:52.906Z,27.83
2022-11-20T02:18:21.084Z,19.58
2022-11-20T02:20:51.140Z,24.00
2022-11-20T02:23:48.786Z,21.45
2022-11-20T02:26:18.004Z,28.45
2022-11-20T02:28:45.068Z,21.83
2022-11-20T02:31:11.959Z,23.92
2022-11-20T02:33:39.243Z,27.35
2022-11-20T02:36:06.568Z,26.05
2022-11-20T02:38:33.523Z,23.27
2022-11-20T02:41:00.316Z,23.33
2022-11-20T02:43:27.119Z,21.35
2022-11-20T02:45:53.923Z,25.60
2022-11-20T02:48:20.736Z,19.95
2022-11-20T02:50:48.195Z,20.75
2022-11-20T02:53:14.928Z,26.70
2022-11-20T02:55:41.852Z,21.58
2022-11-20T02:58:08.690Z,20.70
2022-11-20T03:00:36.512Z,24.75
2022-11-20T03:03:03.395Z,26.87
2022-11-20T03:05:30.162Z,24.30
2022-11-20T03:07:56.927Z,23.40
2022-11-20T03:10:23.912Z,26.23
2022-11-20T03:12:56.868Z,22.05
2022-11-20T03:15:24.645Z,23.87
2022-11-20T03:17:55.744Z,22.17
2022-11-20T03:20:23.211Z,21.35
2022-11-20T03:22:50.107Z,20.48
2022-11-20T03:25:17.000Z,25.02
2022-11-20T03:27:43.779Z,23.80
2022-11-20T03:30:11.049Z,23.13
2022-11-20T03:32:37.873Z,22.73
2022-11-20T03:35:05.037Z,24.77
2022-11-20T03:37:32.824Z,21.65
2022-11-20T03:39:59.724Z,21.65
2022-11-20T03:42:45.205Z,25.17
2022-11-20T03:45:12.755Z,22.55
2022-11-20T03:47:39.970Z,24.27
2022-11-20T03:50:07.252Z,22.55
2022-11-20T03:52:34.016Z,21.83
2022-11-20T03:55:00.843Z,22.90
2022-11-20T03:57:27.592Z,23.98
2022-11-20T03:59:54.314Z,24.05
2022-11-20T04:02:21.150Z,25.50
2022-11-20T04:04:47.879Z,27.87
2022-11-20T04:07:14.717Z,27.23
2022-11-20T04:09:41.592Z,27.48
2022-11-20T04:12:08.406Z,23.20
2022-11-20T04:14:35.134Z,26.15
2022-11-20T04:17:01.989Z,24.17
2022-11-20T04:19:28.860Z,22.10
2022-11-20T04:21:55.629Z,24.80
2022-11-20T04:24:22.415Z,24.00
2022-11-20T04:26:49.190Z,25.62
2022-11-20T04:29:16.272Z,25.25
2022-11-20T04:31:43.085Z,25.77
2022-11-20T04:34:12.819Z,23.55
2022-11-20T04:36:39.686Z,21.58
2022-11-20T04:39:07.474Z,24.90
2022-11-20T04:41:36.481Z,24.80
2022-11-20T04:44:05.306Z,25.47
2022-11-20T04:46:35.484Z,27.35
2022-11-20T04:49:02.433Z,23.00
2022-11-20T04:51:29.429Z,22.42
2022-11-20T04:53:56.445Z,22.58
2022-11-20T04:56:23.510Z,26.47
2022-11-20T04:58:51.006Z,25.12
2022-11-20T05:01:20.379Z,25.58
2022-11-20T05:03:47.354Z,24.87
2022-11-20T05:06:16.383Z,24.98
2022-11-20T05:08:43.703Z,23.03
2022-11-20T05:11:13.471Z,23.67
2022-11-20T05:13:40.852Z,21.50
2022-11-20T05:16:10.933Z,20.55
2022-11-20T05:18:38.794Z,23.98
2022-11-20T05:21:06.587Z,24.87
2022-11-20T05:23:34.323Z,25.98
2022-11-20T05:26:01.954Z,26.05
2022-11-20T05:28:30.282Z,23.42
2022-11-20T05:30:57.129Z,21.10
2022-11-20T05:33:23.954Z,24.70
2022-11-20T05:35:50.987Z,22.42
2022-11-20T05:38:17.760Z,21.83
2022-11-20T05:40:44.654Z,26.77
2022-11-20T05:43:11.430Z,23.60
2022-11-20T05:45:38.279Z,23.07
2022-11-20T05:48:05.283Z,21.35
2022-11-20T05:50:32.117Z,21.33
2022-11-20T05:53:00.600Z,19.73
2022-11-20T05:55:28.278Z,23.02
2022-11-20T05:57:56.168Z,20.47
2022-11-20T06:00:23.363Z,22.73
2022-11-20T06:02:50.256Z,19.90
2022-11-20T06:05:17.323Z,18.00
2022-11-20T06:07:44.338Z,20.77
2022-11-20T06:10:11.440Z,24.10
2022-11-20T06:12:38.260Z,23.87
2022-11-20T06:15:06.649Z,19.85
2022-11-20T06:17:33.381Z,22.10
2022-11-20T06:20:00.360Z,18.35
2022-11-20T06:22:27.167Z,22.23
2022-11-20T06:24:53.949Z,19.87
2022-11-20T06:27:20.804Z,19.52
2022-11-20T06:29:47.593Z,20.42
2022-11-20T06:32:14.473Z,21.45
2022-11-20T06:34:41.284Z,18.70
2022-11-20T06:37:08.094Z,21.27
2022-11-20T06:39:34.891Z,29.52
2022-11-20T06:42:01.643Z,19.75
2022-11-20T06:44:28.417Z,19.45
2022-11-20T06:46:55.259Z,22.93
2022-11-20T06:49:22.358Z,22.75
2022-11-20T06:51:49.296Z,17.98
2022-11-20T06:54:16.118Z,19.08
2022-11-20T06:56:42.921Z,19.83
2022-11-20T06:59:09.917Z,20.33
2022-11-20T07:01:37.258Z,20.65
2022-11-20T07:04:04.298Z,16.67
2022-11-20T07:06:31.270Z,16.83
2022-11-20T07:08:58.547Z,17.27
2022-11-20T07:11:25.430Z,20.03
2022-11-20T07:13:52.221Z,13.93
2022-11-20T07:16:19.300Z,15.95
2022-11-20T07:18:50.466Z,18.55
2022-11-20T07:21:18.311Z,17.45
2022-11-20T07:23:45.158Z,14.23
2022-11-20T07:26:12.229Z,17.67
2022-11-20T07:28:39.453Z,16.45
2022-11-20T07:31:14.620Z,16.87
2022-11-20T07:33:44.436Z,15.35
2022-11-20T07:36:11.403Z,17.63
2022-11-20T07:38:38.977Z,17.12
2022-11-20T07:41:05.979Z,15.45
2022-11-20T07:43:35.874Z,16.60
2022-11-20T07:46:06.673Z,18.55
2022-11-20T07:48:33.513Z,17.80
2022-11-20T07:51:00.425Z,20.17
2022-11-20T07:53:27.305Z,19.45
2022-11-20T07:55:54.234Z,20.35
2022-11-20T07:58:22.489Z,15.95
2022-11-20T08:00:49.754Z,15.63
2022-11-20T08:03:21.636Z,14.68
2022-11-20T08:05:51.332Z,16.42
2022-11-20T08:08:18.433Z,17.25
2022-11-20T08:10:45.265Z,14.93
2022-11-20T08:13:30.778Z,16.00
2022-11-20T08:15:57.605Z,15.73
2022-11-20T08:18:31.166Z,17.48
2022-11-20T08:20:59.274Z,18.35
2022-11-20T08:23:26.116Z,19.85
2022-11-20T08:25:52.915Z,19.47
2022-11-20T08:28:22.296Z,15.43
2022-11-20T08:30:51.251Z,16.58
2022-11-20T08:33:19.290Z,18.20
2022-11-20T08:35:46.499Z,17.40
2022-11-20T08:38:13.273Z,15.40
2022-11-20T08:40:40.021Z,17.05
2022-11-20T08:43:06.853Z,15.23
2022-11-20T08:45:34.955Z,15.98
2022-11-20T08:48:04.230Z,18.15
2022-11-20T08:50:33.326Z,16.30
2022-11-20T08:53:05.498Z,16.20
2022-11-20T08:55:32.607Z,21.20
2022-11-20T08:57:59.516Z,16.73
2022-11-20T09:00:27.138Z,18.80
2022-11-20T09:02:54.062Z,21.53
2022-11-20T09:05:20.910Z,16.00
2022-11-20T09:07:47.745Z,21.48
2022-11-20T09:10:24.018Z,23.83
2022-11-20T09:12:52.953Z,22.77
2022-11-20T09:15:20.338Z,19.83
2022-11-20T09:17:57.824Z,18.65
2022-11-20T09:20:25.449Z,17.27
2022-11-20T09:22:52.711Z,20.23
2022-11-20T09:25:21.589Z,17.40
2022-11-20T09:27:48.816Z,16.90
2022-11-20T09:30:16.609Z,16.87
2022-11-20T09:32:43.895Z,15.85
2022-11-20T09:35:11.928Z,18.00
2022-11-20T09:37:39.187Z,16.40
2022-11-20T09:40:06.641Z,18.83
2022-11-20T09:42:48.649Z,18.48
2022-11-20T09:45:24.523Z,18.55
2022-11-20T09:48:16.881Z,16.95
2022-11-20T09:50:48.815Z,16.62
2022-11-20T09:53:35.080Z,20.97
2022-11-20T09:56:04.383Z,18.98
2022-11-20T09:58:41.508Z,14.48
2022-11-20T10:01:15.599Z,19.05
2022-11-20T10:03:52.743Z,17.55
2022-11-20T10:06:25.282Z,17.10
2022-11-20T10:09:20.067Z,16.10
2022-11-20T10:12:29.426Z,16.50
2022-11-20T10:15:05.137Z,17.75
2022-11-20T10:17:56.536Z,17.33
2022-11-20T10:20:47.704Z,17.13
2022-11-20T10:23:29.468Z,16.50
2022-11-20T10:26:03.976Z,16.33
2022-11-20T10:29:00.661Z,17.60
2022-11-20T10:31:42.466Z,14.35
2022-11-20T10:34:25.289Z,15.07
2022-11-20T10:37:04.818Z,16.12
2022-11-20T10:39:42.411Z,16.05
2022-11-20T10:42:18.329Z,15.68
2022-11-20T10:45:05.736Z,13.68
2022-11-20T10:47:33.922Z,12.60
2022-11-20T10:50:10.750Z,12.40
2022-11-20T10:52:56.018Z,13.43
2022-11-20T10:55:33.960Z,13.48
2022-11-20T10:58:08.169Z,14.07
2022-11-20T11:00:35.034Z,12.47
2022-11-20T11:03:04.020Z,13.75
2022-11-20T11:05:40.540Z,13.98
2022-11-20T11:08:14.784Z,12.70
2022-11-20T11:11:20.347Z,12.30
2022-11-20T11:13:47.173Z,14.23
2022-11-20T11:16:28.078Z,11.70
2022-11-20T11:19:13.290Z,13.50
2022-11-20T11:21:53.841Z,13.15
2022-11-20T11:24:46.000Z,12.88
2022-11-20T11:27:19.136Z,14.90
2022-11-20T11:29:47.140Z,14.85
2022-11-20T11:32:15.408Z,13.60
2022-11-20T11:34:42.645Z,13.98
2022-11-20T11:37:18.584Z,13.60
2022-11-20T11:39:49.397Z,13.17
2022-11-20T11:42:22.125Z,15.50
2022-11-20T11:45:07.803Z,12.43
2022-11-20T11:47:46.470Z,12.32
2022-11-20T11:50:13.248Z,12.45
2022-11-20T11:52:52.381Z,17.57
2022-11-20T11:55:34.347Z,15.05
2022-11-20T11:58:26.410Z,15.07
2022-11-20T12:01:04.391Z,15.65
2022-11-20T12:03:44.382Z,15.98
2022-11-20T12:06:15.184Z,14.87
2022-11-20T12:09:00.726Z,14.85
2022-11-20T12:11:38.952Z,16.80
2022-11-20T12:14:30.798Z,15.82
2022-11-20T12:16:58.683Z,17.25
2022-11-20T12:19:26.099Z,17.93
2022-11-20T12:22:01.898Z,17.15
2022-11-20T12:24:30.096Z,15.73
2022-11-20T12:27:15.456Z,14.32
2022-11-20T12:30:14.752Z,15.63
2022-11-20T12:32:45.187Z,16.73
2022-11-20T12:35:30.607Z,13.85
2022-11-20T12:38:09.613Z,15.30
2022-11-20T12:40:54.867Z,14.95
2022-11-20T12:43:51.410Z,14.80
2022-11-20T12:46:27.332Z,17.07
2022-11-20T12:49:01.242Z,17.17
2022-11-20T12:51:35.165Z,17.40
2022-11-20T12:54:07.877Z,16.67
2022-11-20T12:56:47.062Z,18.67
2022-11-20T12:59:32.639Z,21.80
2022-11-20T13:02:33.269Z,17.80
2022-11-20T13:05:22.770Z,16.75
2022-11-20T13:07:53.181Z,17.45
2022-11-20T13:10:28.830Z,16.52
2022-11-20T13:13:06.726Z,15.60
2022-11-20T13:15:44.563Z,16.55
2022-11-20T13:18:13.514Z,15.77
2022-11-20T13:20:48.038Z,17.23
2022-11-20T13:23:28.656Z,16.55
2022-11-20T13:26:18.708Z,16.60
2022-11-20T13:28:50.651Z,16.77
2022-11-20T13:31:31.897Z,16.62
2022-11-20T13:34:01.161Z,14.63
2022-11-20T13:36:31.695Z,17.05
2022-11-20T13:38:59.156Z,14.77
2022-11-20T13:41:36.530Z,15.73
2022-11-20T13:44:25.044Z,15.90
2022-11-20T13:46:52.669Z,49.08
2022-11-20T13:49:29.012Z,43.50
2022-11-20T13:52:20.405Z,24.17
2022-11-20T13:54:56.384Z,19.67
2022-11-20T13:57:33.874Z,17.10
2022-11-20T14:00:14.765Z,17.45
2022-11-20T14:02:43.891Z,20.05
2022-11-20T14:05:24.709Z,21.90
2022-11-20T14:07:54.149Z,21.87
2022-11-20T14:10:31.285Z,22.13
2022-11-20T14:12:59.189Z,22.05
2022-11-20T14:15:29.079Z,20.33
2022-11-20T14:17:56.474Z,19.27
2022-11-20T14:20:28.606Z,18.55
2022-11-20T14:22:56.557Z,21.70
2022-11-20T14:25:28.377Z,20.67
2022-11-20T14:27:58.669Z,18.75
2022-11-20T14:30:29.058Z,19.27
2022-11-20T14:33:01.274Z,21.70
2022-11-20T14:35:35.691Z,21.37
2022-11-20T14:38:03.765Z,18.55
2022-11-20T14:40:39.818Z,19.92
2022-11-20T14:43:38.987Z,20.67
2022-11-20T14:46:13.387Z,21.30
2022-11-20T14:48:44.382Z,20.00
2022-11-20T14:51:13.447Z,20.52
2022-11-20T14:53:40.618Z,19.92
2022-11-20T14:56:09.446Z,22.53
2022-11-20T14:58:36.444Z,22.50
2022-11-20T15:01:06.731Z,22.27
2022-11-20T15:03:39.360Z,23.12
2022-11-20T15:06:12.542Z,21.10
2022-11-20T15:08:39.800Z,22.03
2022-11-20T15:11:24.967Z,23.30
2022-11-20T15:13:52.112Z,21.95
2022-11-20T15:16:22.099Z,25.05
2022-11-20T15:18:49.600Z,23.12
2022-11-20T15:21:19.275Z,28.03
2022-11-20T15:23:46.539Z,23.98
2022-11-20T15:26:20.025Z,26.15
2022-11-20T15:28:51.465Z,33.13
2022-11-20T15:31:21.390Z,39.95
2022-11-20T15:33:49.224Z,42.93
2022-11-20T15:36:16.698Z,43.42
2022-11-20T15:38:43.949Z,40.70
2022-11-20T15:41:13.877Z,34.50
2022-11-20T15:43:40.818Z,33.40
2022-11-20T15:46:13.113Z,38.97
2022-11-20T15:48:48.558Z,81.18
2022-11-20T15:51:26.781Z,51.17
2022-11-20T15:53:54.155Z,40.17
2022-11-20T15:56:21.833Z,37.33
2022-11-20T15:58:49.164Z,40.97
2022-11-20T16:01:19.768Z,44.40
2022-11-20T16:03:47.709Z,39.10
2022-11-20T16:06:15.068Z,43.90
2022-11-20T16:08:42.623Z,37.95
2022-11-20T16:11:14.073Z,32.73
2022-11-20T16:13:59.729Z,33.70
2022-11-20T16:16:31.567Z,35.67
2022-11-20T16:18:59.377Z,33.85
2022-11-20T16:21:32.567Z,37.85
2022-11-20T16:24:01.370Z,40.80
2022-11-20T16:26:28.930Z,37.47
2022-11-20T16:28:57.166Z,40.67
2022-11-20T16:31:24.598Z,39.42
2022-11-20T16:33:59.681Z,34.50
2022-11-20T16:36:28.928Z,34.87
2022-11-20T16:38:59.317Z,35.83
2022-11-20T16:41:28.430Z,39.95
2022-11-20T16:44:03.653Z,35.20
2022-11-20T16:46:32.830Z,35.90
2022-11-20T16:49:01.042Z,39.80
2022-11-20T16:51:29.916Z,36.78
2022-11-20T16:53:57.263Z,36.78
2022-11-20T16:56:27.154Z,37.63
2022-11-20T16:58:56.928Z,46.15
2022-11-20T17:01:25.555Z,45.60
2022-11-20T17:04:04.832Z,42.25
2022-11-20T17:06:34.872Z,39.58
2022-11-20T17:09:02.656Z,45.97
2022-11-20T17:11:30.241Z,40.75
2022-11-20T17:14:00.900Z,39.47
2022-11-20T17:16:28.589Z,39.65
2022-11-20T17:19:02.815Z,39.88
2022-11-20T17:21:36.471Z,42.30
2022-11-20T17:24:05.992Z,44.33
2022-11-20T17:26:34.377Z,48.40
2022-11-20T17:29:07.756Z,43.78
2022-11-20T17:31:36.154Z,42.05
2022-11-20T17:34:03.620Z,47.75
2022-11-20T17:36:31.362Z,45.38
2022-11-20T17:38:59.466Z,63.37
2022-11-20T17:41:28.422Z,51.33
2022-11-20T17:44:00.770Z,81.63
2022-11-20T17:46:30.847Z,100.62
2022-11-20T17:48:58.270Z,164.07
2022-11-20T17:51:27.844Z,98.83
2022-11-20T17:54:04.011Z,92.32
2022-11-20T17:56:54.501Z,81.12
2022-11-20T17:59:22.696Z,65.45
2022-11-20T18:01:49.667Z,74.75
2022-11-20T18:04:17.516Z,77.00
2022-11-20T18:06:45.125Z,69.85
2022-11-20T18:09:13.045Z,81.87
2022-11-20T18:11:42.438Z,95.55
2022-11-20T18:14:29.647Z,68.37
2022-11-20T18:17:06.303Z,80.77
2022-11-20T18:19:44.695Z,69.12
2022-11-20T18:22:20.286Z,83.00
2022-11-20T18:24:47.634Z,88.07
2022-11-20T18:27:21.885Z,91.45
2022-11-20T18:29:52.339Z,92.27
2022-11-20T18:32:21.825Z,85.05
2022-11-20T18:34:49.363Z,92.68
2022-11-20T18:37:17.144Z,86.55
2022-11-20T18:39:44.823Z,84.90
2022-11-20T18:42:35.545Z,77.47
2022-11-20T18:45:05.533Z,78.40
2022-11-20T18:47:38.073Z,77.80
2022-11-20T18:50:07.139Z,87.57
2022-11-20T18:52:40.570Z,76.50
2022-11-20T18:55:08.679Z,76.03
2022-11-20T18:57:36.212Z,77.65
2022-11-20T19:02:55.156Z,72.05
2022-11-20T19:05:22.869Z,69.75
2022-11-20T19:07:50.545Z,74.47
2022-11-20T19:10:21.210Z,85.43
2022-11-20T19:12:49.277Z,98.40
2022-11-20T19:15:16.833Z,76.75
2022-11-20T19:17:44.357Z,71.90
2022-11-20T19:20:12.074Z,77.23
2022-11-20T19:22:39.511Z,76.97
2022-11-20T19:25:07.410Z,74.47
2022-11-20T19:27:34.876Z,70.50
2022-11-20T19:30:04.216Z,76.00
2022-11-20T19:32:31.228Z,73.27
2022-11-20T19:34:58.505Z,72.10
2022-11-20T19:37:25.850Z,70.03
2022-11-20T19:39:53.191Z,64.35
2022-11-20T19:42:20.104Z,59.13
2022-11-20T19:44:47.042Z,66.77
2022-11-20T19:47:14.862Z,65.55
2022-11-20T19:49:42.596Z,71.45
2022-11-20T19:52:10.599Z,72.10
2022-11-20T19:54:38.091Z,66.28
2022-11-20T19:57:05.306Z,85.30
2022-11-20T19:59:32.174Z,78.18
2022-11-20T20:01:59.051Z,87.97
2022-11-20T20:04:26.649Z,97.10
2022-11-20T20:06:54.094Z,79.15
2022-11-20T20:09:24.056Z,84.23
2022-11-20T20:11:51.517Z,78.37
2022-11-20T20:14:18.978Z,82.55
2022-11-20T20:16:46.064Z,77.55
2022-11-20T20:19:15.857Z,77.25
2022-11-20T20:21:43.949Z,77.63
2022-11-20T20:24:13.057Z,77.22
2022-11-20T20:26:42.695Z,81.47
2022-11-20T20:29:10.608Z,81.97
2022-11-20T20:31:37.973Z,75.75
2022-11-20T20:34:06.041Z,68.07
2022-11-20T20:36:33.307Z,72.85
2022-11-20T20:39:00.569Z,70.90
2022-11-20T20:41:27.900Z,71.15
2022-11-20T20:44:14.247Z,69.57
2022-11-20T20:46:42.064Z,75.23
2022-11-20T20:49:09.823Z,79.95
2022-11-20T20:51:36.780Z,83.20
2022-11-20T20:54:05.104Z,76.55
2022-11-20T20:56:35.326Z,70.78
2022-11-20T20:59:04.083Z,76.00
2022-11-20T21:01:32.587Z,75.50
2022-11-20T21:04:00.059Z,81.93
2022-11-20T21:06:27.070Z,95.93
2022-11-20T21:08:55.994Z,112.18
2022-11-20T21:11:23.116Z,93.30
2022-11-20T21:13:51.302Z,86.65
2022-11-20T21:16:21.154Z,80.45
2022-11-20T21:18:48.593Z,101.65
2022-11-20T21:21:35.118Z,90.45
2022-11-20T21:24:02.929Z,84.53
2022-11-20T21:26:29.848Z,88.28
2022-11-20T21:28:57.861Z,79.70
2022-11-20T21:31:27.072Z,61.15
2022-11-20T21:33:55.600Z,69.62
2022-11-20T21:36:28.554Z,68.97
2022-11-20T21:38:57.012Z,72.18
2022-11-20T21:41:26.644Z,65.50
2022-11-20T21:46:45.700Z,58.17
2022-11-20T21:49:13.284Z,59.30
2022-11-20T21:51:40.692Z,59.92
2022-11-20T21:54:07.583Z,60.03
2022-11-20T21:56:34.495Z,58.35
2022-11-20T21:59:01.396Z,54.35
2022-11-20T22:01:30.185Z,49.63
2022-11-20T22:03:59.267Z,50.38
2022-11-20T22:06:29.635Z,49.97
2022-11-20T22:08:56.884Z,45.10
2022-11-20T22:11:24.082Z,59.13
2022-11-20T22:14:09.590Z,65.47
2022-11-20T22:16:38.002Z,51.47
2022-11-20T22:19:20.590Z,52.25
2022-11-20T22:21:48.103Z,67.72
2022-11-20T22:24:17.205Z,129.43
2022-11-20T22:26:44.255Z,127.90
2022-11-20T22:29:17.042Z,78.20
2022-11-20T22:31:44.129Z,61.15
2022-11-20T22:34:13.168Z,57.60
2022-11-20T22:36:40.590Z,60.67
2022-11-20T22:39:07.742Z,62.80
2022-11-20T22:41:34.937Z,60.67
2022-11-20T22:44:04.821Z,50.40
2022-11-20T22:46:33.986Z,54.95
2022-11-20T22:49:03.033Z,53.70
2022-11-20T22:51:32.841Z,58.90
2022-11-20T22:54:00.245Z,52.45
2022-11-20T22:56:27.179Z,53.22
2022-11-20T22:58:54.331Z,46.03
2022-11-20T23:01:26.407Z,49.13
2022-11-20T23:04:01.469Z,44.70
2022-11-20T23:06:29.093Z,50.78
2022-11-20T23:08:57.043Z,45.58
2022-11-20T23:11:26.881Z,52.38
2022-11-20T23:14:02.830Z,49.88
2022-11-20T23:16:31.401Z,43.93
2022-11-20T23:19:01.301Z,44.92
2022-11-20T23:21:28.712Z,46.67
2022-11-20T23:23:57.288Z,48.80
2022-11-20T23:26:28.437Z,54.95
2022-11-20T23:28:57.855Z,52.13
2022-11-20T23:31:27.049Z,54.10
2022-11-20T23:33:55.935Z,59.78
2022-11-20T23:36:23.344Z,55.12
2022-11-20T23:38:50.519Z,63.38
2022-11-20T23:41:17.622Z,57.93
2022-11-20T23:43:44.468Z,65.72
2022-11-20T23:46:15.123Z,61.45
2022-11-20T23:48:45.069Z,65.30
2022-11-20T23:51:13.116Z,62.97
2022-11-20T23:53:40.057Z,51.23
2022-11-20T23:56:06.995Z,50.60
2022-11-20T23:58:36.758Z,51.13
